sensor_id;sensor_type;location;lat;lon;timestamp;pressure;altitude;pressure_sealevel;temperature;humidity
78223;BME280;67497;53.058;21.618;2023-11-19T00:01:47;101120.34;;;-1.13;84.92
78223;BME280;67497;53.058;21.618;2023-11-19T00:03:48;101107.03;;;-1.16;84.69
78223;BME280;67497;53.058;21.618;2023-11-19T00:05:48;101116.63;;;-1.09;85.55
78223;BME280;67497;53.058;21.618;2023-11-19T00:07:48;101115.81;;;-1.11;85.60
78223;BME280;67497;53.058;21.618;2023-11-19T00:09:50;101101.09;;;-1.24;85.47
78223;BME280;67497;53.058;21.618;2023-11-19T00:11:50;101102.84;;;-1.23;85.25
78223;BME280;67497;53.058;21.618;2023-11-19T00:13:50;101091.63;;;-1.34;86.94
78223;BME280;67497;53.058;21.618;2023-11-19T00:15:51;101103.19;;;-1.32;86.97
78223;BME280;67497;53.058;21.618;2023-11-19T00:17:51;101088.72;;;-1.28;86.01
78223;BME280;67497;53.058;21.618;2023-11-19T00:19:51;101086.72;;;-1.23;85.16
78223;BME280;67497;53.058;21.618;2023-11-19T00:22:10;101064.66;;;-1.31;85.46
78223;BME280;67497;53.058;21.618;2023-11-19T00:24:11;101063.78;;;-1.32;85.57
78223;BME280;67497;53.058;21.618;2023-11-19T00:26:12;101058.72;;;-1.39;85.66
78223;BME280;67497;53.058;21.618;2023-11-19T00:28:13;101046.81;;;-1.55;86.53
78223;BME280;67497;53.058;21.618;2023-11-19T00:30:14;101072.47;;;-1.48;86.03
78223;BME280;67497;53.058;21.618;2023-11-19T00:32:14;101063.91;;;-1.58;86.55
78223;BME280;67497;53.058;21.618;2023-11-19T00:34:15;101071.06;;;-1.57;87.75
78223;BME280;67497;53.058;21.618;2023-11-19T00:36:16;101071.09;;;-1.58;87.18
78223;BME280;67497;53.058;21.618;2023-11-19T00:38:19;101052.59;;;-1.66;86.25
78223;BME280;67497;53.058;21.618;2023-11-19T00:40:19;101048.91;;;-1.63;86.22
78223;BME280;67497;53.058;21.618;2023-11-19T00:42:30;101074.06;;;-1.43;86.32
78223;BME280;67497;53.058;21.618;2023-11-19T00:44:31;101083.31;;;-1.50;87.60
78223;BME280;67497;53.058;21.618;2023-11-19T00:46:31;101049.13;;;-1.69;87.02
78223;BME280;67497;53.058;21.618;2023-11-19T00:48:32;101056.84;;;-1.60;87.43
78223;BME280;67497;53.058;21.618;2023-11-19T00:50:33;101052.28;;;-1.58;86.79
78223;BME280;67497;53.058;21.618;2023-11-19T00:52:33;101062.00;;;-1.54;86.49
78223;BME280;67497;53.058;21.618;2023-11-19T00:54:34;101059.66;;;-1.63;87.02
78223;BME280;67497;53.058;21.618;2023-11-19T00:56:34;101048.09;;;-1.65;87.69
78223;BME280;67497;53.058;21.618;2023-11-19T00:58:35;101068.81;;;-1.46;87.43
78223;BME280;67497;53.058;21.618;2023-11-19T01:00:37;101047.31;;;-1.46;86.67
78223;BME280;67497;53.058;21.618;2023-11-19T01:02:37;101045.72;;;-1.51;86.47
78223;BME280;67497;53.058;21.618;2023-11-19T01:04:37;101049.38;;;-1.52;87.69
78223;BME280;67497;53.058;21.618;2023-11-19T01:06:38;101053.94;;;-1.54;87.08
78223;BME280;67497;53.058;21.618;2023-11-19T01:08:38;101038.81;;;-1.57;87.39
78223;BME280;67497;53.058;21.618;2023-11-19T01:10:39;101057.22;;;-1.46;87.70
78223;BME280;67497;53.058;21.618;2023-11-19T01:12:39;101050.25;;;-1.52;87.41
78223;BME280;67497;53.058;21.618;2023-11-19T01:14:40;101062.31;;;-1.40;86.99
78223;BME280;67497;53.058;21.618;2023-11-19T01:16:40;101029.16;;;-1.39;85.33
78223;BME280;67497;53.058;21.618;2023-11-19T01:18:40;101020.22;;;-1.40;85.79
78223;BME280;67497;53.058;21.618;2023-11-19T01:20:40;101036.13;;;-1.35;87.22
78223;BME280;67497;53.058;21.618;2023-11-19T01:22:41;101027.38;;;-1.40;86.36
78223;BME280;67497;53.058;21.618;2023-11-19T01:24:41;101027.34;;;-1.39;86.75
78223;BME280;67497;53.058;21.618;2023-11-19T01:26:43;101023.97;;;-1.44;86.24
78223;BME280;67497;53.058;21.618;2023-11-19T01:28:45;101029.94;;;-1.37;86.50
78223;BME280;67497;53.058;21.618;2023-11-19T01:30:46;101025.81;;;-1.46;86.25
78223;BME280;67497;53.058;21.618;2023-11-19T01:32:47;101024.00;;;-1.45;86.89
78223;BME280;67497;53.058;21.618;2023-11-19T01:34:47;101005.16;;;-1.44;86.72
78223;BME280;67497;53.058;21.618;2023-11-19T01:36:47;101010.16;;;-1.35;86.57
78223;BME280;67497;53.058;21.618;2023-11-19T01:38:48;101009.47;;;-1.40;86.43
78223;BME280;67497;53.058;21.618;2023-11-19T01:40:49;101005.59;;;-1.33;85.51
78223;BME280;67497;53.058;21.618;2023-11-19T01:42:49;101007.47;;;-1.35;85.85
78223;BME280;67497;53.058;21.618;2023-11-19T01:44:59;100987.72;;;-1.34;85.34
78223;BME280;67497;53.058;21.618;2023-11-19T01:47:00;100986.28;;;-1.42;85.98
78223;BME280;67497;53.058;21.618;2023-11-19T01:49:02;100987.16;;;-1.42;86.22
78223;BME280;67497;53.058;21.618;2023-11-19T01:51:03;100987.09;;;-1.40;85.64
78223;BME280;67497;53.058;21.618;2023-11-19T01:53:04;100982.72;;;-1.43;85.86
78223;BME280;67497;53.058;21.618;2023-11-19T01:55:04;100987.91;;;-1.38;85.69
78223;BME280;67497;53.058;21.618;2023-11-19T01:57:06;100986.03;;;-1.36;85.79
78223;BME280;67497;53.058;21.618;2023-11-19T01:59:09;100981.59;;;-1.37;85.84
78223;BME280;67497;53.058;21.618;2023-11-19T02:01:12;100985.72;;;-1.50;86.39
78223;BME280;67497;53.058;21.618;2023-11-19T02:03:14;100981.81;;;-1.43;85.92
78223;BME280;67497;53.058;21.618;2023-11-19T02:05:15;100991.72;;;-1.44;86.38
78223;BME280;67497;53.058;21.618;2023-11-19T02:07:16;100978.41;;;-1.47;86.53
78223;BME280;67497;53.058;21.618;2023-11-19T02:09:17;100987.19;;;-1.43;85.88
78223;BME280;67497;53.058;21.618;2023-11-19T02:11:19;100983.72;;;-1.45;86.55
78223;BME280;67497;53.058;21.618;2023-11-19T02:13:20;100965.59;;;-1.40;85.44
78223;BME280;67497;53.058;21.618;2023-11-19T02:15:20;100967.22;;;-1.36;85.03
78223;BME280;67497;53.058;21.618;2023-11-19T02:17:29;100955.72;;;-1.40;85.34
78223;BME280;67497;53.058;21.618;2023-11-19T02:19:31;100946.41;;;-1.53;86.19
78223;BME280;67497;53.058;21.618;2023-11-19T02:21:31;100953.72;;;-1.35;85.70
78223;BME280;67497;53.058;21.618;2023-11-19T02:23:32;100945.22;;;-1.46;85.76
78223;BME280;67497;53.058;21.618;2023-11-19T02:25:33;100960.22;;;-1.40;85.93
78223;BME280;67497;53.058;21.618;2023-11-19T02:28:01;100955.13;;;-1.46;85.96
78223;BME280;67497;53.058;21.618;2023-11-19T02:30:02;100967.34;;;-1.39;85.50
78223;BME280;67497;53.058;21.618;2023-11-19T02:32:06;100970.13;;;-1.41;85.83
78223;BME280;67497;53.058;21.618;2023-11-19T02:34:10;100962.09;;;-1.42;85.83
78223;BME280;67497;53.058;21.618;2023-11-19T02:36:12;100962.97;;;-1.42;86.47
78223;BME280;67497;53.058;21.618;2023-11-19T02:38:13;100953.34;;;-1.47;86.25
78223;BME280;67497;53.058;21.618;2023-11-19T02:40:14;100962.22;;;-1.45;86.91
78223;BME280;67497;53.058;21.618;2023-11-19T02:42:15;100950.88;;;-1.52;87.05
78223;BME280;67497;53.058;21.618;2023-11-19T02:44:15;100959.09;;;-1.56;86.86
78223;BME280;67497;53.058;21.618;2023-11-19T02:46:15;100941.25;;;-1.57;87.23
78223;BME280;67497;53.058;21.618;2023-11-19T02:48:17;100952.09;;;-1.60;87.18
78223;BME280;67497;53.058;21.618;2023-11-19T02:50:19;100940.56;;;-1.62;87.74
78223;BME280;67497;53.058;21.618;2023-11-19T02:52:25;100935.88;;;-1.57;87.62
78223;BME280;67497;53.058;21.618;2023-11-19T02:54:25;100919.78;;;-1.59;87.49
78223;BME280;67497;53.058;21.618;2023-11-19T02:56:27;100917.88;;;-1.55;87.02
78223;BME280;67497;53.058;21.618;2023-11-19T02:58:29;100921.31;;;-1.52;86.76
78223;BME280;67497;53.058;21.618;2023-11-19T03:00:30;100921.03;;;-1.46;86.79
78223;BME280;67497;53.058;21.618;2023-11-19T03:02:37;100933.41;;;-1.42;87.01
78223;BME280;67497;53.058;21.618;2023-11-19T03:04:44;100927.97;;;-1.40;86.09
78223;BME280;67497;53.058;21.618;2023-11-19T03:06:46;100923.22;;;-1.34;85.86
78223;BME280;67497;53.058;21.618;2023-11-19T03:08:46;100915.09;;;-1.32;85.48
78223;BME280;67497;53.058;21.618;2023-11-19T03:10:48;100909.84;;;-1.35;85.58
78223;BME280;67497;53.058;21.618;2023-11-19T03:12:49;100912.53;;;-1.35;85.43
78223;BME280;67497;53.058;21.618;2023-11-19T03:14:49;100912.47;;;-1.34;85.47
78223;BME280;67497;53.058;21.618;2023-11-19T03:16:51;100901.94;;;-1.38;85.76
78223;BME280;67497;53.058;21.618;2023-11-19T03:18:51;100895.47;;;-1.34;85.68
78223;BME280;67497;53.058;21.618;2023-11-19T03:20:52;100889.97;;;-1.31;85.06
78223;BME280;67497;53.058;21.618;2023-11-19T03:22:52;100885.41;;;-1.29;85.16
78223;BME280;67497;53.058;21.618;2023-11-19T03:24:52;100882.16;;;-1.37;85.14
78223;BME280;67497;53.058;21.618;2023-11-19T03:26:53;100879.34;;;-1.34;85.81
78223;BME280;67497;53.058;21.618;2023-11-19T03:28:53;100882.03;;;-1.34;85.49
78223;BME280;67497;53.058;21.618;2023-11-19T03:30:54;100877.75;;;-1.38;85.10
78223;BME280;67497;53.058;21.618;2023-11-19T03:32:56;100878.59;;;-1.38;86.10
78223;BME280;67497;53.058;21.618;2023-11-19T03:34:56;100862.00;;;-1.47;86.36
78223;BME280;67497;53.058;21.618;2023-11-19T03:36:57;100873.06;;;-1.33;86.13
78223;BME280;67497;53.058;21.618;2023-11-19T03:38:57;100862.47;;;-1.38;86.03
78223;BME280;67497;53.058;21.618;2023-11-19T03:40:57;100863.09;;;-1.31;86.15
78223;BME280;67497;53.058;21.618;2023-11-19T03:42:59;100857.47;;;-1.25;85.59
78223;BME280;67497;53.058;21.618;2023-11-19T03:44:59;100869.94;;;-1.24;85.38
78223;BME280;67497;53.058;21.618;2023-11-19T03:47:00;100868.28;;;-1.27;84.42
78223;BME280;67497;53.058;21.618;2023-11-19T03:49:00;100857.72;;;-1.31;85.63
78223;BME280;67497;53.058;21.618;2023-11-19T03:51:00;100862.06;;;-1.27;85.54
78223;BME280;67497;53.058;21.618;2023-11-19T03:53:01;100852.22;;;-1.28;85.65
78223;BME280;67497;53.058;21.618;2023-11-19T03:55:03;100844.09;;;-1.27;84.89
78223;BME280;67497;53.058;21.618;2023-11-19T03:57:05;100838.78;;;-1.28;84.74
78223;BME280;67497;53.058;21.618;2023-11-19T03:59:05;100845.72;;;-1.23;84.50
78223;BME280;67497;53.058;21.618;2023-11-19T04:01:11;100842.03;;;-1.20;85.12
78223;BME280;67497;53.058;21.618;2023-11-19T04:03:13;100830.72;;;-1.28;84.82
78223;BME280;67497;53.058;21.618;2023-11-19T04:05:13;100824.69;;;-1.33;85.28
78223;BME280;67497;53.058;21.618;2023-11-19T04:07:14;100835.19;;;-1.27;85.63
78223;BME280;67497;53.058;21.618;2023-11-19T04:09:14;100818.34;;;-1.32;85.56
78223;BME280;67497;53.058;21.618;2023-11-19T04:11:14;100823.47;;;-1.26;86.54
78223;BME280;67497;53.058;21.618;2023-11-19T04:13:15;100827.84;;;-1.24;85.17
78223;BME280;67497;53.058;21.618;2023-11-19T04:15:15;100823.34;;;-1.23;85.41
78223;BME280;67497;53.058;21.618;2023-11-19T04:17:16;100812.84;;;-1.29;85.44
78223;BME280;67497;53.058;21.618;2023-11-19T04:19:17;100822.53;;;-1.25;86.12
78223;BME280;67497;53.058;21.618;2023-11-19T04:21:17;100803.84;;;-1.28;85.86
78223;BME280;67497;53.058;21.618;2023-11-19T04:23:17;100809.16;;;-1.27;85.61
78223;BME280;67497;53.058;21.618;2023-11-19T04:25:18;100808.13;;;-1.24;86.38
78223;BME280;67497;53.058;21.618;2023-11-19T04:27:19;100807.28;;;-1.25;85.59
78223;BME280;67497;53.058;21.618;2023-11-19T04:29:20;100804.59;;;-1.25;86.03
78223;BME280;67497;53.058;21.618;2023-11-19T04:31:20;100804.53;;;-1.23;86.07
78223;BME280;67497;53.058;21.618;2023-11-19T04:33:20;100802.75;;;-1.24;85.40
78223;BME280;67497;53.058;21.618;2023-11-19T04:35:21;100794.13;;;-1.31;85.99
78223;BME280;67497;53.058;21.618;2023-11-19T04:37:21;100789.66;;;-1.32;85.57
78223;BME280;67497;53.058;21.618;2023-11-19T04:39:21;100787.47;;;-1.22;86.35
78223;BME280;67497;53.058;21.618;2023-11-19T04:41:22;100785.31;;;-1.14;85.51
78223;BME280;67497;53.058;21.618;2023-11-19T04:43:23;100776.41;;;-1.16;85.53
78223;BME280;67497;53.058;21.618;2023-11-19T04:45:23;100769.19;;;-1.14;85.72
78223;BME280;67497;53.058;21.618;2023-11-19T04:47:24;100756.22;;;-1.25;85.27
78223;BME280;67497;53.058;21.618;2023-11-19T04:49:24;100761.44;;;-1.22;85.39
78223;BME280;67497;53.058;21.618;2023-11-19T04:51:27;100754.25;;;-1.21;85.75
78223;BME280;67497;53.058;21.618;2023-11-19T04:53:27;100745.63;;;-1.28;85.83
78223;BME280;67497;53.058;21.618;2023-11-19T04:55:27;100741.03;;;-1.26;85.33
78223;BME280;67497;53.058;21.618;2023-11-19T04:57:27;100737.69;;;-1.31;85.69
78223;BME280;67497;53.058;21.618;2023-11-19T04:59:28;100740.50;;;-1.34;85.97
78223;BME280;67497;53.058;21.618;2023-11-19T05:01:28;100731.84;;;-1.40;86.91
78223;BME280;67497;53.058;21.618;2023-11-19T05:03:30;100734.53;;;-1.40;86.45
78223;BME280;67497;53.058;21.618;2023-11-19T05:05:31;100723.63;;;-1.37;86.80
78223;BME280;67497;53.058;21.618;2023-11-19T05:07:32;100709.53;;;-1.42;86.98
78223;BME280;67497;53.058;21.618;2023-11-19T05:09:32;100716.53;;;-1.38;86.99
78223;BME280;67497;53.058;21.618;2023-11-19T05:11:33;100715.06;;;-1.45;87.30
78223;BME280;67497;53.058;21.618;2023-11-19T05:13:34;100716.00;;;-1.46;88.51
78223;BME280;67497;53.058;21.618;2023-11-19T05:15:34;100718.97;;;-1.52;88.88
78223;BME280;67497;53.058;21.618;2023-11-19T05:17:35;100719.63;;;-1.47;89.04
78223;BME280;67497;53.058;21.618;2023-11-19T05:19:37;100700.81;;;-1.47;88.56
78223;BME280;67497;53.058;21.618;2023-11-19T05:21:37;100694.22;;;-1.40;88.46
78223;BME280;67497;53.058;21.618;2023-11-19T05:23:37;100693.28;;;-1.39;87.84
78223;BME280;67497;53.058;21.618;2023-11-19T05:25:39;100692.16;;;-1.34;87.90
78223;BME280;67497;53.058;21.618;2023-11-19T05:27:39;100687.00;;;-1.38;88.27
78223;BME280;67497;53.058;21.618;2023-11-19T05:29:40;100682.94;;;-1.48;88.83
78223;BME280;67497;53.058;21.618;2023-11-19T05:31:42;100686.59;;;-1.49;89.31
78223;BME280;67497;53.058;21.618;2023-11-19T05:33:42;100668.59;;;-1.47;89.11
78223;BME280;67497;53.058;21.618;2023-11-19T05:35:43;100672.06;;;-1.45;88.93
78223;BME280;67497;53.058;21.618;2023-11-19T05:37:43;100680.91;;;-1.43;89.00
78223;BME280;67497;53.058;21.618;2023-11-19T05:39:44;100677.91;;;-1.36;88.87
78223;BME280;67497;53.058;21.618;2023-11-19T05:41:45;100680.66;;;-1.37;88.68
78223;BME280;67497;53.058;21.618;2023-11-19T05:43:45;100680.47;;;-1.33;89.01
78223;BME280;67497;53.058;21.618;2023-11-19T05:45:46;100676.75;;;-1.30;88.66
78223;BME280;67497;53.058;21.618;2023-11-19T05:47:47;100682.28;;;-1.33;89.04
78223;BME280;67497;53.058;21.618;2023-11-19T05:49:47;100672.53;;;-1.36;89.07
78223;BME280;67497;53.058;21.618;2023-11-19T05:51:47;100667.06;;;-1.34;88.94
78223;BME280;67497;53.058;21.618;2023-11-19T05:53:48;100668.69;;;-1.30;88.54
78223;BME280;67497;53.058;21.618;2023-11-19T05:55:50;100664.13;;;-1.28;89.02
78223;BME280;67497;53.058;21.618;2023-11-19T05:57:55;100654.78;;;-1.40;88.90
78223;BME280;67497;53.058;21.618;2023-11-19T05:59:56;100666.00;;;-1.30;89.45
78223;BME280;67497;53.058;21.618;2023-11-19T06:01:57;100656.19;;;-1.31;89.85
78223;BME280;67497;53.058;21.618;2023-11-19T06:03:57;100666.66;;;-1.25;88.72
78223;BME280;67497;53.058;21.618;2023-11-19T06:05:58;100666.84;;;-1.30;89.30
78223;BME280;67497;53.058;21.618;2023-11-19T06:07:58;100669.50;;;-1.28;89.27
78223;BME280;67497;53.058;21.618;2023-11-19T06:09:59;100667.31;;;-1.20;89.68
78223;BME280;67497;53.058;21.618;2023-11-19T06:11:59;100670.81;;;-1.18;89.60
78223;BME280;67497;53.058;21.618;2023-11-19T06:14:02;100666.53;;;-1.22;89.50
78223;BME280;67497;53.058;21.618;2023-11-19T06:16:05;100664.22;;;-1.11;89.49
78223;BME280;67497;53.058;21.618;2023-11-19T06:18:06;100661.44;;;-1.09;88.64
78223;BME280;67497;53.058;21.618;2023-11-19T06:20:07;100659.19;;;-1.00;88.51
78223;BME280;67497;53.058;21.618;2023-11-19T06:22:07;100652.72;;;-0.96;88.31
78223;BME280;67497;53.058;21.618;2023-11-19T06:24:08;100652.22;;;-1.04;89.29
78223;BME280;67497;53.058;21.618;2023-11-19T06:26:09;100637.03;;;-1.05;88.94
78223;BME280;67497;53.058;21.618;2023-11-19T06:28:09;100642.91;;;-0.97;88.83
78223;BME280;67497;53.058;21.618;2023-11-19T06:30:10;100635.81;;;-0.98;88.71
78223;BME280;67497;53.058;21.618;2023-11-19T06:32:11;100641.31;;;-1.01;89.00
78223;BME280;67497;53.058;21.618;2023-11-19T06:34:12;100641.47;;;-1.04;89.90
78223;BME280;67497;53.058;21.618;2023-11-19T06:36:14;100634.34;;;-1.05;89.59
78223;BME280;67497;53.058;21.618;2023-11-19T06:38:16;100632.63;;;-1.06;90.26
78223;BME280;67497;53.058;21.618;2023-11-19T06:40:16;100639.44;;;-0.99;89.69
78223;BME280;67497;53.058;21.618;2023-11-19T06:42:27;100634.78;;;-0.95;89.89
78223;BME280;67497;53.058;21.618;2023-11-19T06:44:29;100630.94;;;-0.90;89.46
78223;BME280;67497;53.058;21.618;2023-11-19T06:46:30;100628.00;;;-0.85;89.16
78223;BME280;67497;53.058;21.618;2023-11-19T06:48:34;100627.72;;;-0.79;88.73
78223;BME280;67497;53.058;21.618;2023-11-19T06:50:34;100627.34;;;-0.72;88.56
78223;BME280;67497;53.058;21.618;2023-11-19T06:52:34;100619.38;;;-0.73;88.34
78223;BME280;67497;53.058;21.618;2023-11-19T06:54:39;100620.22;;;-0.73;89.34
78223;BME280;67497;53.058;21.618;2023-11-19T06:56:39;100616.59;;;-0.72;88.96
78223;BME280;67497;53.058;21.618;2023-11-19T06:58:40;100606.84;;;-0.74;88.79
78223;BME280;67497;53.058;21.618;2023-11-19T07:00:40;100606.13;;;-0.78;88.93
78223;BME280;67497;53.058;21.618;2023-11-19T07:02:41;100598.41;;;-0.67;88.94
78223;BME280;67497;53.058;21.618;2023-11-19T07:04:42;100606.16;;;-0.61;88.89
78223;BME280;67497;53.058;21.618;2023-11-19T07:06:42;100587.78;;;-0.70;88.60
78223;BME280;67497;53.058;21.618;2023-11-19T07:08:43;100602.91;;;-0.67;89.38
78223;BME280;67497;53.058;21.618;2023-11-19T07:10:46;100598.84;;;-0.76;89.95
78223;BME280;67497;53.058;21.618;2023-11-19T07:12:47;100604.72;;;-0.68;89.67
78223;BME280;67497;53.058;21.618;2023-11-19T07:14:49;100592.13;;;-0.67;89.91
78223;BME280;67497;53.058;21.618;2023-11-19T07:16:50;100596.19;;;-0.58;89.59
78223;BME280;67497;53.058;21.618;2023-11-19T07:18:50;100597.94;;;-0.57;89.46
78223;BME280;67497;53.058;21.618;2023-11-19T07:20:50;100599.47;;;-0.52;89.26
78223;BME280;67497;53.058;21.618;2023-11-19T07:22:51;100601.75;;;-0.44;89.14
78223;BME280;67497;53.058;21.618;2023-11-19T07:24:51;100589.97;;;-0.42;88.67
78223;BME280;67497;53.058;21.618;2023-11-19T07:26:53;100591.94;;;-0.45;89.10
78223;BME280;67497;53.058;21.618;2023-11-19T07:28:54;100586.69;;;-0.48;89.28
78223;BME280;67497;53.058;21.618;2023-11-19T07:30:55;100569.47;;;-0.44;88.97
78223;BME280;67497;53.058;21.618;2023-11-19T07:32:56;100575.91;;;-0.30;89.03
78223;BME280;67497;53.058;21.618;2023-11-19T07:34:56;100569.50;;;-0.27;88.70
78223;BME280;67497;53.058;21.618;2023-11-19T07:36:57;100551.84;;;-0.33;88.36
78223;BME280;67497;53.058;21.618;2023-11-19T07:38:59;100563.63;;;-0.35;88.42
78223;BME280;67497;53.058;21.618;2023-11-19T07:40:59;100547.47;;;-0.35;88.67
78223;BME280;67497;53.058;21.618;2023-11-19T07:43:00;100547.06;;;-0.28;88.60
78223;BME280;67497;53.058;21.618;2023-11-19T07:45:00;100536.94;;;-0.23;88.52
78223;BME280;67497;53.058;21.618;2023-11-19T07:47:00;100527.81;;;-0.20;88.17
78223;BME280;67497;53.058;21.618;2023-11-19T07:49:01;100525.53;;;-0.28;88.37
78223;BME280;67497;53.058;21.618;2023-11-19T07:51:03;100538.44;;;-0.17;87.87
78223;BME280;67497;53.058;21.618;2023-11-19T07:53:03;100518.16;;;-0.24;87.82
78223;BME280;67497;53.058;21.618;2023-11-19T07:55:05;100521.66;;;-0.22;88.01
78223;BME280;67497;53.058;21.618;2023-11-19T07:57:05;100525.91;;;-0.18;87.62
78223;BME280;67497;53.058;21.618;2023-11-19T07:59:05;100515.16;;;-0.18;88.37
78223;BME280;67497;53.058;21.618;2023-11-19T08:01:06;100509.75;;;-0.18;87.79
78223;BME280;67497;53.058;21.618;2023-11-19T08:03:07;100523.00;;;-0.14;87.87
78223;BME280;67497;53.058;21.618;2023-11-19T08:05:07;100510.63;;;-0.18;87.98
78223;BME280;67497;53.058;21.618;2023-11-19T08:07:08;100519.19;;;-0.10;87.67
78223;BME280;67497;53.058;21.618;2023-11-19T08:09:08;100501.72;;;-0.03;87.72
78223;BME280;67497;53.058;21.618;2023-11-19T08:11:13;100507.41;;;0.09;87.31
78223;BME280;67497;53.058;21.618;2023-11-19T08:13:14;100501.25;;;0.07;86.76
78223;BME280;67497;53.058;21.618;2023-11-19T08:15:14;100507.63;;;0.21;87.00
78223;BME280;67497;53.058;21.618;2023-11-19T08:17:15;100503.97;;;0.22;86.57
78223;BME280;67497;53.058;21.618;2023-11-19T08:19:16;100497.03;;;0.18;86.76
78223;BME280;67497;53.058;21.618;2023-11-19T08:21:16;100499.72;;;0.18;86.55
78223;BME280;67497;53.058;21.618;2023-11-19T08:23:16;100501.28;;;0.22;86.64
78223;BME280;67497;53.058;21.618;2023-11-19T08:25:17;100503.19;;;0.20;87.14
78223;BME280;67497;53.058;21.618;2023-11-19T08:27:18;100495.59;;;0.11;87.10
78223;BME280;67497;53.058;21.618;2023-11-19T08:29:18;100496.75;;;0.23;86.41
78223;BME280;67497;53.058;21.618;2023-11-19T08:31:18;100488.66;;;0.07;86.87
78223;BME280;67497;53.058;21.618;2023-11-19T08:33:19;100480.47;;;0.09;86.89
78223;BME280;67497;53.058;21.618;2023-11-19T08:35:22;100494.94;;;0.23;86.75
78223;BME280;67497;53.058;21.618;2023-11-19T08:37:23;100493.75;;;0.29;86.43
78223;BME280;67497;53.058;21.618;2023-11-19T08:39:24;100494.16;;;0.21;86.37
78223;BME280;67497;53.058;21.618;2023-11-19T08:41:24;100494.63;;;0.29;85.76
78223;BME280;67497;53.058;21.618;2023-11-19T08:43:29;100492.25;;;0.23;86.34
78223;BME280;67497;53.058;21.618;2023-11-19T08:45:31;100480.34;;;0.27;86.09
78223;BME280;67497;53.058;21.618;2023-11-19T08:47:32;100498.09;;;0.31;86.08
78223;BME280;67497;53.058;21.618;2023-11-19T08:49:32;100478.06;;;0.20;86.57
78223;BME280;67497;53.058;21.618;2023-11-19T08:51:32;100492.38;;;0.37;86.29
78223;BME280;67497;53.058;21.618;2023-11-19T08:53:33;100491.50;;;0.37;86.16
78223;BME280;67497;53.058;21.618;2023-11-19T08:55:34;100491.56;;;0.35;86.08
78223;BME280;67497;53.058;21.618;2023-11-19T08:57:34;100483.84;;;0.29;86.35
78223;BME280;67497;53.058;21.618;2023-11-19T08:59:35;100497.91;;;0.34;86.43
78223;BME280;67497;53.058;21.618;2023-11-19T09:01:35;100493.41;;;0.35;86.80
78223;BME280;67497;53.058;21.618;2023-11-19T09:03:36;100489.13;;;0.46;85.33
78223;BME280;67497;53.058;21.618;2023-11-19T09:05:37;100488.38;;;0.44;85.62
78223;BME280;67497;53.058;21.618;2023-11-19T09:07:37;100481.75;;;0.19;86.03
78223;BME280;67497;53.058;21.618;2023-11-19T09:09:37;100471.56;;;0.08;86.91
78223;BME280;67497;53.058;21.618;2023-11-19T09:11:37;100467.84;;;0.26;86.52
78223;BME280;67497;53.058;21.618;2023-11-19T09:13:38;100471.09;;;0.48;86.29
78223;BME280;67497;53.058;21.618;2023-11-19T09:15:38;100462.63;;;0.54;85.39
78223;BME280;67497;53.058;21.618;2023-11-19T09:17:38;100471.84;;;0.66;84.66
78223;BME280;67497;53.058;21.618;2023-11-19T09:19:39;100461.78;;;0.70;84.58
78223;BME280;67497;53.058;21.618;2023-11-19T09:21:39;100458.81;;;0.74;84.08
78223;BME280;67497;53.058;21.618;2023-11-19T09:23:39;100456.22;;;0.73;84.35
78223;BME280;67497;53.058;21.618;2023-11-19T09:25:40;100453.16;;;0.63;84.08
78223;BME280;67497;53.058;21.618;2023-11-19T09:27:41;100452.91;;;0.68;83.94
78223;BME280;67497;53.058;21.618;2023-11-19T09:29:41;100453.44;;;0.58;84.37
78223;BME280;67497;53.058;21.618;2023-11-19T09:31:43;100455.25;;;0.58;84.69
78223;BME280;67497;53.058;21.618;2023-11-19T09:33:44;100441.06;;;0.39;85.35
78223;BME280;67497;53.058;21.618;2023-11-19T09:35:44;100448.44;;;0.35;85.44
78223;BME280;67497;53.058;21.618;2023-11-19T09:37:45;100448.66;;;0.48;85.27
78223;BME280;67497;53.058;21.618;2023-11-19T09:39:45;100441.44;;;0.48;85.30
78223;BME280;67497;53.058;21.618;2023-11-19T09:41:46;100439.34;;;0.38;85.68
78223;BME280;67497;53.058;21.618;2023-11-19T09:43:46;100423.59;;;0.30;85.86
78223;BME280;67497;53.058;21.618;2023-11-19T09:45:50;100440.38;;;0.35;86.14
78223;BME280;67497;53.058;21.618;2023-11-19T09:47:53;100420.22;;;0.27;85.37
78223;BME280;67497;53.058;21.618;2023-11-19T09:49:54;100428.97;;;0.30;85.34
78223;BME280;67497;53.058;21.618;2023-11-19T09:51:54;100429.97;;;0.29;85.36
78223;BME280;67497;53.058;21.618;2023-11-19T09:53:55;100433.50;;;0.30;86.11
78223;BME280;67497;53.058;21.618;2023-11-19T09:56:05;100418.31;;;0.29;86.41
78223;BME280;67497;53.058;21.618;2023-11-19T09:58:06;100411.78;;;0.17;86.23
78223;BME280;67497;53.058;21.618;2023-11-19T10:00:10;100415.69;;;0.27;86.01
78223;BME280;67497;53.058;21.618;2023-11-19T10:02:16;100405.59;;;0.46;86.03
78223;BME280;67497;53.058;21.618;2023-11-19T10:04:18;100388.38;;;0.49;84.71
78223;BME280;67497;53.058;21.618;2023-11-19T10:06:19;100394.41;;;0.54;84.52
78223;BME280;67497;53.058;21.618;2023-11-19T10:08:23;100389.97;;;0.37;84.95
78223;BME280;67497;53.058;21.618;2023-11-19T10:10:24;100391.88;;;0.35;85.08
78223;BME280;67497;53.058;21.618;2023-11-19T10:12:24;100382.69;;;0.39;85.39
78223;BME280;67497;53.058;21.618;2023-11-19T10:14:25;100381.28;;;0.48;84.62
78223;BME280;67497;53.058;21.618;2023-11-19T10:16:29;100369.91;;;0.43;85.04
78223;BME280;67497;53.058;21.618;2023-11-19T10:18:32;100369.63;;;0.47;84.60
78223;BME280;67497;53.058;21.618;2023-11-19T10:20:40;100365.78;;;0.51;84.17
78223;BME280;67497;53.058;21.618;2023-11-19T10:22:41;100368.25;;;0.40;84.20
78223;BME280;67497;53.058;21.618;2023-11-19T10:24:41;100361.25;;;0.52;84.48
78223;BME280;67497;53.058;21.618;2023-11-19T10:26:42;100354.16;;;0.35;85.57
78223;BME280;67497;53.058;21.618;2023-11-19T10:28:43;100362.66;;;0.43;85.45